EDSB Airport Information

Runway Information
Runway 03 Length 9787 ft width 148 ft
Elevation 405 ft Threshold 830 ft Heading 32
Runway 21 Length 9787 ft Width 148 ft
Elevation 404 ft Threshold 830 ft Heading 212
Airport Frequencies
Type AAS Name REIMS INFO Frequency 124.1 MHZ
Type APP Name STRASSBOUR Frequency 119.45 MHZ
Type ATIS Name BADEN ATIS Frequency 121.275 MHZ
Type GND Name BADEN GND Frequency 121.825 MHZ
Type INFO Name LANGEN INF Frequency 128.95 MHZ
Type TWR Name BADEN TWR Frequency 134.1 MHZ
Airport Navaids
Type NDB Name Karlsruhe Baden Baden Frequency 431 KHZ
Type DME Name Karlsruhe Baden Baden Frequency 115800 KHZ
Airport Weather Information & NOTAM
ADDS - METARS form results

(1939 UTC 23 September 2018)
Data provider http://aviationweather.gov/metar/data/
 
METAR text: EDSB 231920Z 32009KT 290V360 9999 FEW016 BKN024 OVC039 14/12 Q1017
Conditions at: EDSB (KARLSRUHE/BADEN , DE) observed 1920 UTC 23 September 2018
Temperature: 14.0°C (57°F)
Dewpoint: 12.0°C (54°F) [RH = 88%]
Pressure (altimeter): 30.03 inches Hg (1017.0 mb)
Winds: from the NW (320 degrees) at 10 MPH (9 knots; 4.6 m/s)
Visibility: 6 or more miles (10+ km)
Ceiling: 2400 feet AGL
Clouds: few clouds at 1600 feet AGL
broken clouds at 2400 feet AGL
overcast cloud deck at 3900 feet AGL
Weather: no significant weather observed at this time

METAR text: EDSB 231850Z 30007G18KT 250V350 9999 -SHRA BKN023 BKN041 15/14 Q1015
Conditions at: EDSB (KARLSRUHE/BADEN , DE) observed 1850 UTC 23 September 2018
Temperature: 15.0°C (59°F)
Dewpoint: 14.0°C (57°F) [RH = 94%]
Pressure (altimeter): 29.97 inches Hg (1015.0 mb)
Winds: from the WNW (300 degrees) at 8 MPH (7 knots; 3.6 m/s)
gusting to 21 MPH (18 knots; 9.3 m/s)
Visibility: 6 or more miles (10+ km)
Ceiling: 2300 feet AGL
Clouds: broken clouds at 2300 feet AGL
broken clouds at 4100 feet AGL
Weather: -SHRA  (light rain showers)

Forecast for: EDSB (KARLSRUHE/BADEN , DE)
Text: TAF EDSB 231700Z 2318/2418 VRB03KT 9999 BKN025
Forecast period: 1800 UTC 23 September 2018 to 1800 UTC 24 September 2018
Forecast type: FROM: standard forecast or significant change
Winds: variable direction winds at 3 MPH (3 knots; 1.5 m/s)
Visibility: 6 or more miles 10+ km)
Ceiling: 2500 feet AGL
Clouds: broken clouds at 2500 feet AGL
Weather: no significant weather forecast for this period
Text: TEMPO 2318/2323 4000 SHRA BKN014CB
Forecast period: 1800 to 2300 UTC 23 September 2018
Forecast type: TEMPORARY: The following changes expected for less than half the time period
Visibility: 2.49 miles (4.01 km)
Ceiling: 1400 feet AGL
Clouds: broken clouds at 1400 feet AGL
Weather: SHRA  (rain showers)